createdAt,value
2019-05-26T00:02:13.759Z,10.40
2019-05-26T00:04:41.945Z,10.93
2019-05-26T00:07:10.201Z,9.63
2019-05-26T00:09:38.400Z,9.77
2019-05-26T00:12:06.625Z,9.80
2019-05-26T00:14:34.815Z,10.27
2019-05-26T00:17:03.003Z,9.10
2019-05-26T00:19:31.223Z,9.90
2019-05-26T00:21:59.438Z,9.97
2019-05-26T00:24:27.615Z,9.90
2019-05-26T00:26:55.829Z,9.23
2019-05-26T00:29:24.008Z,9.17
2019-05-26T00:31:52.249Z,9.73
2019-05-26T00:34:20.461Z,9.70
2019-05-26T00:36:48.705Z,9.40
2019-05-26T00:39:16.913Z,10.23
2019-05-26T00:41:45.101Z,10.00
2019-05-26T00:44:13.327Z,11.17
2019-05-26T00:46:41.520Z,10.03
2019-05-26T00:49:09.745Z,11.20
2019-05-26T00:51:37.973Z,10.97
2019-05-26T00:54:06.263Z,10.90
2019-05-26T00:56:34.501Z,11.00
2019-05-26T00:59:02.794Z,9.80
2019-05-26T01:01:31.015Z,10.93
2019-05-26T01:03:59.308Z,11.40
2019-05-26T01:06:27.556Z,10.87
2019-05-26T01:08:56.244Z,10.50
2019-05-26T01:11:25.418Z,10.43
2019-05-26T01:13:53.660Z,10.00
2019-05-26T01:16:21.881Z,10.27
2019-05-26T01:18:50.093Z,10.07
2019-05-26T01:21:18.386Z,9.97
2019-05-26T01:23:46.556Z,9.90
2019-05-26T01:26:14.755Z,9.70
2019-05-26T01:28:42.957Z,9.40
2019-05-26T01:31:11.150Z,9.70
2019-05-26T01:33:39.327Z,10.30
2019-05-26T01:36:07.665Z,9.90
2019-05-26T01:38:35.911Z,10.77
2019-05-26T01:41:04.129Z,10.10
2019-05-26T01:43:32.327Z,9.60
2019-05-26T01:46:00.567Z,10.73
2019-05-26T01:48:28.865Z,9.40
2019-05-26T01:50:57.116Z,9.50
2019-05-26T01:53:25.343Z,9.07
2019-05-26T01:55:53.553Z,10.47
2019-05-26T01:58:21.754Z,9.67
2019-05-26T02:00:49.965Z,10.00
2019-05-26T02:03:18.160Z,10.23
2019-05-26T02:05:46.365Z,9.25
2019-05-26T02:08:14.581Z,9.00
2019-05-26T02:10:42.804Z,9.60
2019-05-26T02:13:11.063Z,9.93
2019-05-26T02:15:39.240Z,9.80
2019-05-26T02:25:29.712Z,10.00
2019-05-26T02:27:57.952Z,10.73
2019-05-26T02:30:26.166Z,9.20
2019-05-26T02:32:55.229Z,9.03
2019-05-26T02:35:23.629Z,9.17
2019-05-26T02:37:51.842Z,9.43
2019-05-26T02:40:21.293Z,9.30
2019-05-26T02:42:49.567Z,9.10
2019-05-26T02:45:17.949Z,9.33
2019-05-26T02:47:46.680Z,10.33
2019-05-26T02:50:15.287Z,9.60
2019-05-26T02:52:43.468Z,8.90
2019-05-26T02:55:11.950Z,9.20
2019-05-26T03:22:15.744Z,9.45
2019-05-26T03:34:33.522Z,9.37
2019-05-26T03:37:01.743Z,9.10
2019-05-26T03:39:43.318Z,9.87
2019-05-26T03:42:00.854Z,9.80
2019-05-26T03:49:23.834Z,10.57
2019-05-26T03:51:52.031Z,9.30
2019-05-26T03:54:20.255Z,9.47
2019-05-26T03:56:48.542Z,9.00
2019-05-26T03:59:16.761Z,9.33
2019-05-26T04:01:44.972Z,8.60
2019-05-26T04:04:13.154Z,9.20
2019-05-26T04:09:08.804Z,9.00
2019-05-26T04:11:37.099Z,9.20
2019-05-26T04:16:32.747Z,9.30
2019-05-26T04:21:28.389Z,9.63
2019-05-26T04:23:56.576Z,9.80
2019-05-26T04:26:24.789Z,8.60
2019-05-26T04:28:52.994Z,9.87
2019-05-26T04:31:21.185Z,9.50
2019-05-26T04:33:49.396Z,9.70
2019-05-26T04:36:17.689Z,9.00
2019-05-26T04:38:46.018Z,9.80
2019-05-26T04:41:14.309Z,9.57
2019-05-26T04:43:42.517Z,9.30
2019-05-26T04:46:10.827Z,9.20
2019-05-26T04:48:39.199Z,10.10
2019-05-26T04:51:07.461Z,9.43
2019-05-26T04:53:35.642Z,9.17
2019-05-26T04:56:03.888Z,10.10
2019-05-26T04:58:32.111Z,10.47
2019-05-26T05:01:00.401Z,9.60
2019-05-26T05:03:28.616Z,10.50
2019-05-26T05:05:56.814Z,10.43
2019-05-26T05:08:25.093Z,9.53
2019-05-26T05:10:53.325Z,10.13
2019-05-26T05:13:24.809Z,9.67
2019-05-26T05:15:51.452Z,10.20
2019-05-26T05:18:19.682Z,10.67
2019-05-26T05:20:47.897Z,10.30
2019-05-26T05:23:16.107Z,10.03
2019-05-26T05:25:44.341Z,11.17
2019-05-26T05:28:12.545Z,10.20
2019-05-26T05:30:40.809Z,10.90
2019-05-26T05:33:08.996Z,10.93
2019-05-26T05:35:37.250Z,11.20
2019-05-26T05:38:05.474Z,11.33
2019-05-26T05:40:33.755Z,11.40
2019-05-26T05:43:01.982Z,11.23
2019-05-26T05:45:30.211Z,11.27
2019-05-26T05:47:58.436Z,10.90
2019-05-26T05:50:26.629Z,11.40
2019-05-26T05:52:54.882Z,11.33
2019-05-26T05:55:23.135Z,10.80
2019-05-26T05:57:51.356Z,11.40
2019-05-26T06:00:19.734Z,11.60
2019-05-26T06:02:47.995Z,12.17
2019-05-26T06:05:16.420Z,12.17
2019-05-26T06:07:44.605Z,12.77
2019-05-26T06:10:13.097Z,12.53
2019-05-26T06:12:41.281Z,12.43
2019-05-26T06:15:10.870Z,12.57
2019-05-26T06:17:39.085Z,12.50
2019-05-26T06:20:07.674Z,12.20
2019-05-26T06:22:35.902Z,11.10
2019-05-26T06:25:05.669Z,11.80
2019-05-26T06:27:33.848Z,12.20
2019-05-26T06:30:02.049Z,11.73
2019-05-26T06:32:30.240Z,10.40
2019-05-26T06:34:58.455Z,11.40
2019-05-26T06:37:26.661Z,10.20
2019-05-26T06:39:54.865Z,10.40
2019-05-26T06:42:23.084Z,9.83
2019-05-26T06:44:53.893Z,10.10
2019-05-26T06:47:21.200Z,9.57
2019-05-26T06:49:49.379Z,9.50
2019-05-26T06:52:17.589Z,8.37
2019-05-26T06:54:45.863Z,7.60
2019-05-26T06:57:14.084Z,7.60
2019-05-26T06:59:42.256Z,7.40
2019-05-26T07:02:10.447Z,7.50
2019-05-26T07:04:38.746Z,7.40
2019-05-26T07:07:06.966Z,6.00
2019-05-26T07:09:35.128Z,5.40
2019-05-26T07:12:04.598Z,5.87
2019-05-26T07:14:32.784Z,5.80
2019-05-26T07:17:01.009Z,5.50
2019-05-26T07:19:31.116Z,5.20
2019-05-26T07:21:59.365Z,5.07
2019-05-26T07:24:29.483Z,5.30
2019-05-26T07:26:57.530Z,4.53
2019-05-26T07:29:25.704Z,5.40
2019-05-26T07:31:53.929Z,4.53
2019-05-26T07:34:22.112Z,5.10
2019-05-26T07:36:50.331Z,4.97
2019-05-26T07:39:19.556Z,4.50
2019-05-26T07:41:47.732Z,4.40
2019-05-26T07:44:15.954Z,4.20
2019-05-26T07:46:44.112Z,4.10
2019-05-26T07:49:12.328Z,4.37
2019-05-26T07:51:40.504Z,3.90
2019-05-26T07:54:24.318Z,4.20
2019-05-26T07:56:38.613Z,4.47
2019-05-26T07:59:06.788Z,3.67
2019-05-26T08:01:36.632Z,4.10
2019-05-26T08:04:05.008Z,4.30
2019-05-26T08:06:33.231Z,4.00
2019-05-26T08:09:01.449Z,3.80
2019-05-26T08:11:30.655Z,3.80
2019-05-26T08:13:58.857Z,3.80
2019-05-26T08:16:27.048Z,3.87
2019-05-26T08:18:55.261Z,3.90
2019-05-26T08:21:23.488Z,3.77
2019-05-26T08:23:51.677Z,4.20
2019-05-26T08:26:19.905Z,4.20
2019-05-26T08:28:48.102Z,3.80
2019-05-26T08:31:16.292Z,4.17
2019-05-26T08:33:44.493Z,4.07
2019-05-26T08:36:12.693Z,3.80
2019-05-26T08:38:40.888Z,3.70
2019-05-26T08:41:09.081Z,4.03
2019-05-26T08:43:37.317Z,4.00
2019-05-26T08:46:05.521Z,3.93
2019-05-26T08:48:33.738Z,3.97
2019-05-26T08:51:02.049Z,4.10
2019-05-26T08:53:30.243Z,4.13
2019-05-26T08:55:58.438Z,4.33
2019-05-26T08:58:29.271Z,4.07
2019-05-26T09:00:56.634Z,4.07
2019-05-26T09:03:24.897Z,3.77
2019-05-26T09:05:53.164Z,3.70
2019-05-26T09:08:21.370Z,4.30
2019-05-26T09:10:49.573Z,3.60
2019-05-26T09:13:17.769Z,4.30
2019-05-26T09:15:48.286Z,3.60
2019-05-26T09:18:18.381Z,4.87
2019-05-26T09:20:46.613Z,3.87
2019-05-26T09:23:14.777Z,3.50
2019-05-26T09:25:46.501Z,4.27
2019-05-26T09:28:13.848Z,4.00
2019-05-26T09:30:42.114Z,3.80
2019-05-26T09:33:10.357Z,3.90
2019-05-26T09:35:38.561Z,3.50
2019-05-26T09:38:07.680Z,4.17
2019-05-26T09:40:35.863Z,4.33
2019-05-26T09:43:15.635Z,3.87
2019-05-26T09:45:33.924Z,3.70
2019-05-26T09:48:02.325Z,4.20
2019-05-26T09:50:30.546Z,3.97
2019-05-26T09:52:58.720Z,3.63
2019-05-26T09:55:26.924Z,3.30
2019-05-26T09:57:55.147Z,3.90
2019-05-26T10:00:23.433Z,3.63
2019-05-26T10:02:51.739Z,3.80
2019-05-26T10:05:19.948Z,4.00
2019-05-26T10:07:48.132Z,4.23
2019-05-26T10:10:16.527Z,4.33
2019-05-26T10:12:44.784Z,3.63
2019-05-26T10:15:13.367Z,3.70
2019-05-26T10:17:41.586Z,3.57
2019-05-26T10:20:09.981Z,4.30
2019-05-26T10:22:38.224Z,4.40
2019-05-26T10:25:06.884Z,4.13
2019-05-26T10:27:35.132Z,4.40
2019-05-26T10:30:05.045Z,4.43
2019-05-26T10:32:33.236Z,4.60
2019-05-26T10:35:01.438Z,4.60
2019-05-26T10:37:29.616Z,4.60
2019-05-26T10:39:57.820Z,5.43
2019-05-26T10:42:26.059Z,4.60
2019-05-26T10:44:54.285Z,5.10
2019-05-26T10:47:22.497Z,4.80
2019-05-26T10:49:50.725Z,5.03
2019-05-26T10:52:18.937Z,5.10
2019-05-26T10:54:47.133Z,4.80
2019-05-26T10:57:15.409Z,4.43
2019-05-26T10:59:43.649Z,4.80
2019-05-26T11:02:11.865Z,4.93
2019-05-26T11:04:40.090Z,4.70
2019-05-26T11:07:08.260Z,4.73
2019-05-26T11:09:36.479Z,5.17
2019-05-26T11:12:04.680Z,4.43
2019-05-26T11:14:32.939Z,5.00
2019-05-26T11:17:01.185Z,5.00
2019-05-26T11:19:29.420Z,5.77
2019-05-26T11:21:57.628Z,5.70
2019-05-26T11:24:25.802Z,6.00
2019-05-26T11:26:54.030Z,5.97
2019-05-26T11:29:22.301Z,5.93
2019-05-26T11:31:50.544Z,5.30
2019-05-26T11:34:19.752Z,4.73
2019-05-26T11:36:48.860Z,4.80
2019-05-26T11:39:20.112Z,4.50
2019-05-26T11:41:54.585Z,4.60
2019-05-26T11:44:18.580Z,4.20
2019-05-26T11:46:46.813Z,4.40
2019-05-26T11:49:15.115Z,4.70
2019-05-26T11:51:43.305Z,4.60
2019-05-26T11:54:11.541Z,4.53
2019-05-26T11:56:39.708Z,4.37
2019-05-26T11:59:07.992Z,4.73
2019-05-26T12:01:36.182Z,4.93
2019-05-26T12:04:04.461Z,4.20
2019-05-26T12:06:32.661Z,4.43
2019-05-26T12:09:00.871Z,4.47
2019-05-26T12:11:29.076Z,4.87
2019-05-26T12:13:57.289Z,4.97
2019-05-26T12:16:28.748Z,4.87
2019-05-26T12:18:55.384Z,4.70
2019-05-26T12:21:23.637Z,5.50
2019-05-26T12:23:54.875Z,5.33
2019-05-26T12:26:21.808Z,4.50
2019-05-26T12:28:50.030Z,4.70
2019-05-26T12:31:18.196Z,4.67
2019-05-26T12:33:46.442Z,4.50
2019-05-26T12:36:14.644Z,5.30
2019-05-26T12:38:51.715Z,4.50
2019-05-26T12:41:20.460Z,4.83
2019-05-26T12:43:48.697Z,5.00
2019-05-26T12:46:16.906Z,4.87
2019-05-26T12:48:45.137Z,4.37
2019-05-26T12:51:13.313Z,4.70
2019-05-26T12:53:41.489Z,5.10
2019-05-26T12:56:09.722Z,5.13
2019-05-26T12:58:37.952Z,4.77
2019-05-26T13:01:06.133Z,5.40
2019-05-26T13:03:34.363Z,5.40
2019-05-26T13:06:02.560Z,5.07
2019-05-26T13:08:30.859Z,5.47
2019-05-26T13:10:59.123Z,5.60
2019-05-26T13:13:27.301Z,5.30
2019-05-26T13:15:56.417Z,5.43
2019-05-26T13:18:24.634Z,5.40
2019-05-26T13:20:52.900Z,5.33
2019-05-26T13:23:21.078Z,4.93
2019-05-26T13:25:49.284Z,5.33
2019-05-26T13:28:17.500Z,5.57
2019-05-26T13:30:45.718Z,4.83
2019-05-26T13:33:13.935Z,4.90
2019-05-26T13:35:42.204Z,4.40
2019-05-26T13:38:11.433Z,4.67
2019-05-26T13:40:39.665Z,4.50
2019-05-26T13:43:07.883Z,4.70
2019-05-26T13:45:36.161Z,4.77
2019-05-26T13:48:04.453Z,4.67
2019-05-26T13:50:32.623Z,5.07
2019-05-26T13:53:00.821Z,5.13
2019-05-26T13:55:29.069Z,4.57
2019-05-26T13:57:57.640Z,4.83
2019-05-26T14:00:25.921Z,5.07
2019-05-26T14:02:54.163Z,4.47
2019-05-26T14:05:22.413Z,4.43
2019-05-26T14:07:51.533Z,4.33
2019-05-26T14:10:29.924Z,4.80
2019-05-26T14:12:58.096Z,4.50
2019-05-26T14:15:37.408Z,4.60
2019-05-26T14:17:56.244Z,4.50
2019-05-26T14:20:31.688Z,4.20
2019-05-26T14:22:59.913Z,4.50
2019-05-26T14:25:28.556Z,4.20
2019-05-26T14:27:56.752Z,3.73
2019-05-26T14:30:24.990Z,4.10
2019-05-26T14:32:53.204Z,3.80
2019-05-26T14:35:21.380Z,3.50
2019-05-26T14:37:49.579Z,3.50
2019-05-26T14:40:17.885Z,3.47
2019-05-26T14:42:46.098Z,3.90
2019-05-26T14:45:14.352Z,3.70
2019-05-26T14:47:42.553Z,3.50
2019-05-26T14:50:10.983Z,3.90
2019-05-26T14:52:39.267Z,3.97
2019-05-26T14:55:07.652Z,3.10
2019-05-26T14:57:35.943Z,3.50
2019-05-26T15:00:08.604Z,3.93
2019-05-26T15:02:36.935Z,3.50
2019-05-26T15:05:05.795Z,3.50
2019-05-26T15:07:34.029Z,3.33
2019-05-26T15:10:02.397Z,3.37
2019-05-26T15:12:30.624Z,3.23
2019-05-26T15:14:58.837Z,3.17
2019-05-26T15:17:27.032Z,3.00
2019-05-26T15:19:55.254Z,3.20
2019-05-26T15:22:23.488Z,3.40
2019-05-26T15:24:51.683Z,3.23
2019-05-26T15:27:19.922Z,3.60
2019-05-26T15:29:48.095Z,3.40
2019-05-26T15:32:16.356Z,3.60
2019-05-26T15:34:44.573Z,3.60
2019-05-26T15:37:12.769Z,3.50
2019-05-26T15:39:40.992Z,3.70
2019-05-26T15:42:09.354Z,3.50
2019-05-26T15:44:37.565Z,3.30
2019-05-26T15:47:05.920Z,3.33
2019-05-26T15:49:34.188Z,3.20
2019-05-26T15:52:03.165Z,3.25
2019-05-26T15:54:31.436Z,3.60
2019-05-26T15:56:59.705Z,3.90
2019-05-26T15:59:27.903Z,3.13
2019-05-26T16:01:56.082Z,3.17
2019-05-26T16:04:24.289Z,3.50
2019-05-26T16:06:52.467Z,3.37
2019-05-26T16:09:20.677Z,3.73
2019-05-26T16:11:49.831Z,3.43
2019-05-26T16:14:18.073Z,5.00
2019-05-26T16:16:46.306Z,3.63
2019-05-26T16:19:14.516Z,3.70
2019-05-26T16:21:42.744Z,3.87
2019-05-26T16:24:10.928Z,3.83
2019-05-26T16:26:39.118Z,3.90
2019-05-26T16:29:08.256Z,3.65
2019-05-26T16:31:37.345Z,4.10
2019-05-26T16:34:05.523Z,3.93
2019-05-26T16:36:34.635Z,3.53
2019-05-26T16:39:02.986Z,4.00
2019-05-26T16:41:31.164Z,3.97
2019-05-26T16:44:00.252Z,3.97
2019-05-26T16:46:28.472Z,3.70
2019-05-26T16:48:56.681Z,3.47
2019-05-26T16:51:25.792Z,3.17
2019-05-26T16:53:54.907Z,3.00
2019-05-26T16:56:23.125Z,3.20
2019-05-26T16:58:52.288Z,3.40
2019-05-26T17:01:21.996Z,3.30
2019-05-26T17:03:50.191Z,3.20
2019-05-26T17:06:18.388Z,3.20
2019-05-26T17:08:46.590Z,3.60
2019-05-26T17:11:14.796Z,3.33
2019-05-26T17:13:43.926Z,2.70
2019-05-26T17:16:12.182Z,3.50
2019-05-26T17:18:40.392Z,3.63
2019-05-26T17:21:09.580Z,3.30
2019-05-26T17:23:38.745Z,3.10
2019-05-26T17:26:07.840Z,3.40
2019-05-26T17:35:59.097Z,3.00
2019-05-26T17:48:17.700Z,3.10
2019-05-26T17:50:46.837Z,3.37
2019-05-26T17:53:15.008Z,3.40
2019-05-26T17:55:43.214Z,3.33
2019-05-26T17:58:11.389Z,3.40
2019-05-26T18:00:39.616Z,3.30
2019-05-26T18:03:08.738Z,3.00
2019-05-26T18:05:36.959Z,3.30
2019-05-26T18:08:05.163Z,3.25
2019-05-26T18:10:35.413Z,3.80
2019-05-26T18:13:03.580Z,3.00
2019-05-26T18:15:31.790Z,3.40
2019-05-26T18:20:29.192Z,2.95
2019-05-26T18:22:57.526Z,3.40
2019-05-26T18:25:25.834Z,3.50
2019-05-26T18:27:53.999Z,3.70
2019-05-26T18:30:22.185Z,3.93
2019-05-26T18:32:50.371Z,3.50
2019-05-26T18:35:18.589Z,3.40
2019-05-26T18:40:15.075Z,3.10
2019-05-26T18:42:44.219Z,3.50
2019-05-26T18:45:13.560Z,3.20
2019-05-26T18:47:42.718Z,3.00
2019-05-26T18:50:11.043Z,3.23
2019-05-26T18:52:41.201Z,3.80
2019-05-26T18:55:09.678Z,3.20
2019-05-26T18:57:38.753Z,3.20
2019-05-26T19:00:08.044Z,3.20
2019-05-26T19:02:36.267Z,3.33
2019-05-26T19:07:31.802Z,3.20
2019-05-26T19:10:00.980Z,3.20
2019-05-26T19:12:29.159Z,3.55
2019-05-26T19:14:58.221Z,3.60
2019-05-26T19:17:26.454Z,3.43
2019-05-26T19:19:54.635Z,3.20
2019-05-26T19:22:22.880Z,3.60
2019-05-26T19:24:51.972Z,3.50
2019-05-26T19:27:21.036Z,3.80
2019-05-26T19:29:50.143Z,3.90
2019-05-26T19:32:18.357Z,3.93
2019-05-26T19:34:47.511Z,3.80
2019-05-26T19:37:15.722Z,3.83
2019-05-26T19:39:43.903Z,4.23
2019-05-26T19:42:13.074Z,3.60
2019-05-26T19:44:41.304Z,3.80
2019-05-26T19:47:09.556Z,3.87
2019-05-26T19:49:37.752Z,4.10
2019-05-26T19:52:05.973Z,3.83
2019-05-26T19:54:34.172Z,3.90
2019-05-26T19:57:02.356Z,3.83
2019-05-26T19:59:30.540Z,3.90
2019-05-26T20:01:58.748Z,3.50
2019-05-26T20:04:26.955Z,3.70
2019-05-26T20:06:56.136Z,3.80
2019-05-26T20:09:24.380Z,4.03
2019-05-26T20:11:52.893Z,3.90
2019-05-26T20:14:21.161Z,4.10
2019-05-26T20:16:49.369Z,4.30
2019-05-26T20:19:17.551Z,4.23
2019-05-26T20:21:45.758Z,4.17
2019-05-26T20:26:41.345Z,3.90
2019-05-26T20:29:09.596Z,4.10
2019-05-26T20:31:37.779Z,4.53
2019-05-26T20:34:05.968Z,4.10
2019-05-26T20:36:34.209Z,4.30
2019-05-26T20:39:02.486Z,4.63
2019-05-26T20:41:30.698Z,4.17
2019-05-26T20:43:58.900Z,4.67
2019-05-26T20:46:27.095Z,4.70
2019-05-26T20:48:55.304Z,4.47
2019-05-26T20:51:23.508Z,4.03
2019-05-26T20:53:51.713Z,4.80
2019-05-26T20:56:19.880Z,5.27
2019-05-26T20:58:49.036Z,4.70
2019-05-26T21:01:17.261Z,4.40
2019-05-26T21:03:45.444Z,4.67
2019-05-26T21:06:13.697Z,4.20
2019-05-26T21:08:41.884Z,4.37
2019-05-26T21:11:10.060Z,4.50
2019-05-26T21:13:38.268Z,4.50
2019-05-26T21:16:06.480Z,4.60
2019-05-26T21:18:34.681Z,4.70
2019-05-26T21:21:02.887Z,4.33
2019-05-26T21:23:31.109Z,4.20
2019-05-26T21:25:59.311Z,4.47
2019-05-26T21:28:27.540Z,4.40
2019-05-26T21:30:55.727Z,4.17
2019-05-26T21:33:23.933Z,5.13
2019-05-26T21:35:52.109Z,4.90
2019-05-26T21:38:20.283Z,4.90
2019-05-26T21:40:48.475Z,5.17
2019-05-26T21:43:16.699Z,4.80
2019-05-26T21:45:44.933Z,5.00
2019-05-26T21:48:13.152Z,4.50
2019-05-26T21:50:41.379Z,4.73
2019-05-26T21:53:09.586Z,4.77
2019-05-26T21:55:37.857Z,5.97
2019-05-26T21:58:06.065Z,4.80
2019-05-26T22:00:38.543Z,5.97
2019-05-26T22:03:06.769Z,5.60
2019-05-26T22:05:35.066Z,5.30
2019-05-26T22:08:03.319Z,5.40
2019-05-26T22:10:31.521Z,5.20
2019-05-26T22:12:59.753Z,5.90
2019-05-26T22:15:27.936Z,5.13
2019-05-26T22:17:56.157Z,5.03
2019-05-26T22:20:24.373Z,5.17
2019-05-26T22:22:52.537Z,5.17
2019-05-26T22:25:20.751Z,5.27
2019-05-26T22:27:48.961Z,5.27
2019-05-26T22:30:17.317Z,5.90
2019-05-26T22:32:45.481Z,5.47
2019-05-26T22:35:13.693Z,6.03
2019-05-26T22:37:41.888Z,6.10
2019-05-26T22:40:10.243Z,6.00
2019-05-26T22:42:39.367Z,5.83
2019-05-26T22:45:07.944Z,6.10
2019-05-26T22:47:36.132Z,6.10
2019-05-26T22:50:05.407Z,5.67
2019-05-26T22:52:33.632Z,6.20
2019-05-26T22:55:01.859Z,5.70
2019-05-26T22:57:30.076Z,5.37
2019-05-26T22:59:58.250Z,5.33
2019-05-26T23:02:26.525Z,6.10
2019-05-26T23:04:54.701Z,6.00
2019-05-26T23:07:22.892Z,6.77
2019-05-26T23:09:51.113Z,5.53
2019-05-26T23:12:19.328Z,5.73
2019-05-26T23:14:47.490Z,6.23
2019-05-26T23:17:15.694Z,5.97
2019-05-26T23:19:43.872Z,5.97
2019-05-26T23:22:12.039Z,6.40
2019-05-26T23:24:40.235Z,5.97
2019-05-26T23:27:08.412Z,6.10
2019-05-26T23:29:36.599Z,6.10
2019-05-26T23:32:04.772Z,5.70
2019-05-26T23:34:32.953Z,6.13
2019-05-26T23:37:01.130Z,6.20
2019-05-26T23:39:29.346Z,6.30
2019-05-26T23:41:57.533Z,5.95
2019-05-26T23:46:53.076Z,7.30
2019-05-26T23:49:21.260Z,6.90
2019-05-26T23:51:49.485Z,6.65
2019-05-26T23:59:12.418Z,5.95
